ADDS METAR Data INFO
IDs: Format: Raw Decoded Include TAF

Data at: 1846 UTC 17 Oct 2017

PATA 171752Z 01004KT 10SM FEW006 OVC065 M02/M02 A2947 RMK AO2 SLP985 T10221022 11006 21022 56007 PNO
PATA 171652Z 00000KT 10SM FEW043 OVC065 M02/M02 A2948 RMK AO2 SLP988 T10221022 PNO
PATA 171552Z 02003KT 10SM OVC048 M02/M02 A2949 RMK AO2 SLP992 T10171017 PNO
PATA 171452Z 01003KT 10SM OVC065 M01/M02 A2951 RMK AO2 SLP997 T10111017 56016 PNO
PATA 171438Z 10003KT 10SM SCT012 OVC060 M01/M02 A2951 RMK AO2 T10111017 PNO
PATA 171352Z COR 00000KT 10SM OVC010 M01/M01 A2952 RMK AO2 SLP000 T10061011
PATA 171252Z AUTO 00000KT 10SM OVC013 M01/M01 A2953 RMK AO2 SLP005 T10111011 TSNO PNO
PATA 171152Z AUTO 00000KT 10SM OVC012 M01/M01 A2956 RMK AO2 SLP013 T10061011 10000 21006 58012 TSNO PNO
PATA 171052Z AUTO 00000KT 10SM OVC010 M01/M01 A2957 RMK AO2 SLP018 T10061011 TSNO PNO
PATA 170952Z AUTO 00000KT 10SM OVC010 M01/M01 A2958 RMK AO2 SLP021 T10061011 TSNO PNO
PATA 170852Z AUTO 00000KT 10SM OVC010 M01/M01 A2959 RMK AO2 SLP024 T10061011 400001028 58007 TSNO PNO
PATA 170752Z AUTO 00000KT 10SM OVC011 M01/M01 A2960 RMK AO2 SLP026 T10061011 TSNO PNO
PATA 170652Z AUTO 00000KT 10SM OVC010 M01/M01 A2961 RMK AO2 CIG 007V013 SLP031 T10061011 TSNO PNO
PATA 170603Z AUTO 00000KT 10SM OVC008 M01/M02 A2961 RMK AO2 CIG 007V011 T10061017 TSNO PNO
PATA 170552Z AUTO 00000KT 10SM OVC010 M01/M02 A2961 RMK AO2 CIG 008V012 SLP031 T10061017 10000 21006 57005 TSNO PNO
PATA 170452Z 18003KT 10SM OVC010 00/M02 A2962 RMK AO2 SLP033 T00001017 PNO
PATA 170352Z 00000KT 10SM OVC008 00/M02 A2962 RMK AO2 SLP034 T00001022 PNO
PATA 170326Z 00000KT 10SM OVC009 00/M02 A2962 RMK AO2 T00001022 PNO
PATA 170252Z 00000KT 10SM OVC010 00/M02 A2962 RMK AO2 SLP036 T00001022 56006 PNO
PATA 170152Z 00000KT 10SM OVC013 00/M02 A2963 RMK AO2 SLP038 T00001022 PNO
PATA 170115Z 00000KT 10SM BKN014 OVC050 00/M03 A2963 RMK AO2 T00001028 PNO
PATA 170052Z 00000KT 10SM SCT014 OVC050 00/M02 A2964 RMK AO2 SLP041 T00001022 PNO
PATA 162352Z 00000KT 10SM OVC050 M01/M03 A2964 RMK AO2 SLP043 T10061028 10000 21022 58002 PNO
PATA 162252Z 00000KT 10SM FEW016 OVC050 M01/M03 A2965 RMK AO2 SLP044 T10061028 PNO
PATA 162227Z 00000KT 10SM SCT016 OVC050 M01/M03 A2965 RMK AO2 T10061028 PNO
PATA 162152Z 10004KT 10SM OVC017 M01/M03 A2965 RMK AO2 SLP045 T10111033 PNO
PATA 162137Z 12003KT 10SM BKN018 OVC050 M01/M03 A2965 RMK AO2 T10111033 PNO
PATA 162052Z 09004KT 10SM OVC050 M01/M04 A2965 RMK AO2 SLP045 T10111039 53000 PNO
PATA 161952Z 10006KT 10SM OVC050 M02/M04 A2965 RMK AO2 SLP044 T10171039 PNO
PATA 161852Z 05004KT 10SM SCT025 OVC050 M02/M03 A2965 RMK AO2 SLP044 T10221033 PNO
PATA 161800Z 00000KT 10SM BKN026 OVC055 M02/M03 A2965 RMK AO2 T10221033 PNO
PATA 161752Z 04003KT 10SM SCT025 OVC055 M02/M03 A2965 RMK AO2 SLP044 T10221033 11022 21028 56002 PNO
PATA 161740Z 00000KT 10SM SCT025 OVC055 M03/M04 A2965 RMK AO2 T10281039 PNO
PATA 161703Z 05003KT 10SM BKN025 BKN036 OVC055 M03/M04 A2965 RMK AO2 T10281039 PNO
PATA 161652Z 04005KT 10SM SCT025 BKN055 OVC090 M03/M04 A2965 RMK AO2 SLP044 T10281039 PNO
PATA 161552Z 03005KT 10SM FEW050 OVC100 M03/M04 A2965 RMK AO2 SLP044 T10281039 PNO
PATA 161452Z 04005KT 10SM OVC047 M03/M04 A2965 RMK AO2 SLP046 T10281039 51001 PNO
PATA 161352Z COR 00000KT 10SM OVC047 M02/M04 A2965 RMK AO2 SLP046 T10221039
PATA 161252Z AUTO 09004KT 10SM OVC046 M02/M04 A2965 RMK AO2 SLP045 T10221044 TSNO PNO
PATA 161152Z AUTO 08003KT 10SM OVC046 M02/M04 A2965 RMK AO2 SLP045 T10221044 11006 21022 51004 TSNO PNO
PATA 161052Z AUTO 00000KT 10SM OVC046 M02/M04 A2965 RMK AO2 SLP044 T10221039 TSNO PNO
PATA 161012Z AUTO 09006KT 10SM SCT029 OVC045 M02/M04 A2965 RMK AO2 T10171039 TSNO PNO
PATA 161001Z AUTO 09003KT 10SM BKN029 OVC045 M02/M04 A2965 RMK AO2 T10171039 TSNO PNO
PATA 160952Z AUTO 10004KT 10SM OVC030 M02/M03 A2964 RMK AO2 SLP043 T10171033 TSNO PNO
PATA 160910Z AUTO 07004KT 10SM OVC030 M01/M04 A2964 RMK AO2 T10111039 TSNO PNO
PATA 160852Z AUTO VRB04KT 10SM OVC028 M01/M04 A2964 RMK AO2 SLP041 T10111039 400441011 51005 TSNO PNO
PATA 160752Z AUTO 09006KT 10SM OVC027 M01/M04 A2963 RMK AO2 SLP039 T10111039 TSNO PNO
PATA 160652Z AUTO 09007KT 10SM OVC029 M01/M04 A2963 RMK AO2 SLP038 T10111039 TSNO PNO